sensor_id;sensor_type;location;lat;lon;timestamp;pressure;altitude;pressure_sealevel;temperature;humidity
56504;BME280;48812;51.606;-0.114;2023-06-10T00:01:21;100735.84;;;23.43;50.72
56504;BME280;48812;51.606;-0.114;2023-06-10T00:03:56;100733.25;;;23.42;50.85
56504;BME280;48812;51.606;-0.114;2023-06-10T00:06:30;100743.19;;;23.41;50.92
56504;BME280;48812;51.606;-0.114;2023-06-10T00:09:10;100738.03;;;23.38;51.00
56504;BME280;48812;51.606;-0.114;2023-06-10T00:11:43;100733.47;;;23.38;50.57
56504;BME280;48812;51.606;-0.114;2023-06-10T00:14:17;100725.50;;;23.37;50.60
56504;BME280;48812;51.606;-0.114;2023-06-10T00:16:51;100728.31;;;23.35;50.80
56504;BME280;48812;51.606;-0.114;2023-06-10T00:19:24;100737.50;;;23.33;50.73
56504;BME280;48812;51.606;-0.114;2023-06-10T00:21:57;100734.91;;;23.31;50.87
56504;BME280;48812;51.606;-0.114;2023-06-10T00:24:30;100727.88;;;23.29;51.02
56504;BME280;48812;51.606;-0.114;2023-06-10T00:27:02;100720.78;;;23.28;50.75
56504;BME280;48812;51.606;-0.114;2023-06-10T00:29:35;100719.91;;;23.27;50.82
56504;BME280;48812;51.606;-0.114;2023-06-10T00:32:08;100721.84;;;23.25;50.99
56504;BME280;48812;51.606;-0.114;2023-06-10T00:34:41;100721.00;;;23.25;50.99
56504;BME280;48812;51.606;-0.114;2023-06-10T00:37:16;100713.88;;;23.24;51.16
56504;BME280;48812;51.606;-0.114;2023-06-10T00:39:49;100719.38;;;23.22;51.01
56504;BME280;48812;51.606;-0.114;2023-06-10T00:42:21;100721.22;;;23.22;50.90
56504;BME280;48812;51.606;-0.114;2023-06-10T00:44:56;100719.47;;;23.21;51.13
56504;BME280;48812;51.606;-0.114;2023-06-10T00:47:29;100712.38;;;23.19;50.72
56504;BME280;48812;51.606;-0.114;2023-06-10T00:50:03;100715.19;;;23.18;50.95
56504;BME280;48812;51.606;-0.114;2023-06-10T00:52:41;100713.56;;;23.15;51.25
56504;BME280;48812;51.606;-0.114;2023-06-10T00:55:17;100710.00;;;23.15;51.16
56504;BME280;48812;51.606;-0.114;2023-06-10T00:57:50;100707.44;;;23.13;51.18
56504;BME280;48812;51.606;-0.114;2023-06-10T01:00:23;100704.00;;;23.11;51.28
56504;BME280;48812;51.606;-0.114;2023-06-10T01:02:56;100705.06;;;23.09;51.02
56504;BME280;48812;51.606;-0.114;2023-06-10T01:05:31;100703.44;;;23.06;51.30
56504;BME280;48812;51.606;-0.114;2023-06-10T01:08:07;100705.38;;;23.04;50.90
56504;BME280;48812;51.606;-0.114;2023-06-10T01:10:50;100701.72;;;23.05;50.99
56504;BME280;48812;51.606;-0.114;2023-06-10T01:13:25;100695.59;;;23.03;51.24
56504;BME280;48812;51.606;-0.114;2023-06-10T01:16:02;100698.50;;;23.00;51.17
56504;BME280;48812;51.606;-0.114;2023-06-10T01:18:40;100696.75;;;22.99;51.09
56504;BME280;48812;51.606;-0.114;2023-06-10T01:21:20;100691.47;;;22.97;51.26
56504;BME280;48812;51.606;-0.114;2023-06-10T01:23:54;100695.97;;;22.97;51.03
56504;BME280;48812;51.606;-0.114;2023-06-10T01:26:31;100687.91;;;22.97;50.93
56504;BME280;48812;51.606;-0.114;2023-06-10T01:29:07;100694.25;;;22.96;51.31
56504;BME280;48812;51.606;-0.114;2023-06-10T01:31:48;100688.00;;;22.95;51.29
56504;BME280;48812;51.606;-0.114;2023-06-10T01:34:21;100700.63;;;22.95;51.38
56504;BME280;48812;51.606;-0.114;2023-06-10T01:36:56;100692.75;;;22.92;51.17
56504;BME280;48812;51.606;-0.114;2023-06-10T01:39:34;100692.97;;;22.89;51.30
56504;BME280;48812;51.606;-0.114;2023-06-10T01:42:08;100694.81;;;22.88;51.04
56504;BME280;48812;51.606;-0.114;2023-06-10T01:44:42;100689.53;;;22.87;51.01
56504;BME280;48812;51.606;-0.114;2023-06-10T01:47:16;100682.41;;;22.86;51.06
56504;BME280;48812;51.606;-0.114;2023-06-10T01:49:50;100686.06;;;22.85;50.90
56504;BME280;48812;51.606;-0.114;2023-06-10T01:52:22;100686.94;;;22.85;50.87
56504;BME280;48812;51.606;-0.114;2023-06-10T01:54:55;100684.34;;;22.83;51.12
56504;BME280;48812;51.606;-0.114;2023-06-10T01:57:30;100686.16;;;22.83;50.93
56504;BME280;48812;51.606;-0.114;2023-06-10T02:00:02;100682.84;;;22.79;51.38
56504;BME280;48812;51.606;-0.114;2023-06-10T02:02:45;100685.53;;;22.79;50.92
56504;BME280;48812;51.606;-0.114;2023-06-10T02:05:19;100689.97;;;22.80;51.09
56504;BME280;48812;51.606;-0.114;2023-06-10T02:07:53;100681.97;;;22.79;51.17
56504;BME280;48812;51.606;-0.114;2023-06-10T02:10:26;100685.53;;;22.79;51.02
56504;BME280;48812;51.606;-0.114;2023-06-10T02:13:01;100680.34;;;22.76;50.92
56504;BME280;48812;51.606;-0.114;2023-06-10T02:15:34;100680.47;;;22.75;50.99
56504;BME280;48812;51.606;-0.114;2023-06-10T02:18:07;100685.00;;;22.74;51.47
56504;BME280;48812;51.606;-0.114;2023-06-10T02:20:42;100681.56;;;22.72;51.03
56504;BME280;48812;51.606;-0.114;2023-06-10T02:23:15;100677.34;;;22.68;51.39
56504;BME280;48812;51.606;-0.114;2023-06-10T02:25:47;100679.28;;;22.66;51.05
56504;BME280;48812;51.606;-0.114;2023-06-10T02:28:20;100677.53;;;22.65;51.44
56504;BME280;48812;51.606;-0.114;2023-06-10T02:30:52;100676.81;;;22.63;51.08
56504;BME280;48812;51.606;-0.114;2023-06-10T02:33:26;100668.94;;;22.60;51.24
56504;BME280;48812;51.606;-0.114;2023-06-10T02:35:59;100673.56;;;22.58;51.33
56504;BME280;48812;51.606;-0.114;2023-06-10T02:38:32;100676.38;;;22.56;51.17
56504;BME280;48812;51.606;-0.114;2023-06-10T02:41:05;100683.72;;;22.54;51.50
56504;BME280;48812;51.606;-0.114;2023-06-10T02:43:38;100679.28;;;22.53;51.11
56504;BME280;48812;51.606;-0.114;2023-06-10T02:46:12;100673.78;;;22.55;51.32
56504;BME280;48812;51.606;-0.114;2023-06-10T02:48:45;100682.84;;;22.54;51.45
56504;BME280;48812;51.606;-0.114;2023-06-10T02:51:24;100688.47;;;22.51;51.20
56504;BME280;48812;51.606;-0.114;2023-06-10T02:54:03;100686.94;;;22.46;51.12
56504;BME280;48812;51.606;-0.114;2023-06-10T02:56:37;100686.28;;;22.43;51.35
56504;BME280;48812;51.606;-0.114;2023-06-10T02:59:20;100681.00;;;22.41;51.37
56504;BME280;48812;51.606;-0.114;2023-06-10T03:01:53;100669.59;;;22.38;51.24
56504;BME280;48812;51.606;-0.114;2023-06-10T03:04:29;100676.81;;;22.37;51.54
56504;BME280;48812;51.606;-0.114;2023-06-10T03:07:09;100677.78;;;22.36;51.38
56504;BME280;48812;51.606;-0.114;2023-06-10T03:09:43;100674.22;;;22.36;51.58
56504;BME280;48812;51.606;-0.114;2023-06-10T03:12:18;100668.06;;;22.34;51.45
56504;BME280;48812;51.606;-0.114;2023-06-10T03:14:53;100663.75;;;22.31;51.29
56504;BME280;48812;51.606;-0.114;2023-06-10T03:17:25;100673.78;;;22.29;51.58
56504;BME280;48812;51.606;-0.114;2023-06-10T03:20:01;100677.44;;;22.28;51.38
56504;BME280;48812;51.606;-0.114;2023-06-10T03:22:38;100678.50;;;22.25;51.55
56504;BME280;48812;51.606;-0.114;2023-06-10T03:25:14;100672.25;;;22.25;51.60
56504;BME280;48812;51.606;-0.114;2023-06-10T03:27:51;100668.81;;;22.23;51.36
56504;BME280;48812;51.606;-0.114;2023-06-10T03:30:24;100669.03;;;22.20;51.75
56504;BME280;48812;51.606;-0.114;2023-06-10T03:32:57;100667.38;;;22.17;51.64
56504;BME280;48812;51.606;-0.114;2023-06-10T03:35:31;100674.63;;;22.17;51.63
56504;BME280;48812;51.606;-0.114;2023-06-10T03:38:04;100674.81;;;22.14;51.50
56504;BME280;48812;51.606;-0.114;2023-06-10T03:40:38;100671.28;;;22.13;51.75
56504;BME280;48812;51.606;-0.114;2023-06-10T03:43:11;100665.09;;;22.11;51.78
56504;BME280;48812;51.606;-0.114;2023-06-10T03:45:44;100662.50;;;22.09;51.63
56504;BME280;48812;51.606;-0.114;2023-06-10T03:48:17;100667.13;;;22.07;51.64
56504;BME280;48812;51.606;-0.114;2023-06-10T03:50:55;100670.06;;;22.04;51.48
56504;BME280;48812;51.606;-0.114;2023-06-10T03:53:29;100671.97;;;22.02;51.62
56504;BME280;48812;51.606;-0.114;2023-06-10T03:56:02;100665.94;;;21.99;51.67
56504;BME280;48812;51.606;-0.114;2023-06-10T03:58:37;100668.72;;;21.97;51.49
56504;BME280;48812;51.606;-0.114;2023-06-10T04:01:12;100665.28;;;21.95;51.71
56504;BME280;48812;51.606;-0.114;2023-06-10T04:03:47;100651.06;;;21.93;51.79
56504;BME280;48812;51.606;-0.114;2023-06-10T04:06:22;100659.13;;;21.93;51.81
56504;BME280;48812;51.606;-0.114;2023-06-10T04:08:58;100665.47;;;21.92;51.93
56504;BME280;48812;51.606;-0.114;2023-06-10T04:11:32;100660.19;;;21.90;51.59
56504;BME280;48812;51.606;-0.114;2023-06-10T04:14:05;100661.19;;;21.89;51.55
56504;BME280;48812;51.606;-0.114;2023-06-10T04:16:37;100664.94;;;21.87;51.88
56504;BME280;48812;51.606;-0.114;2023-06-10T04:19:11;100672.06;;;21.88;51.61
56504;BME280;48812;51.606;-0.114;2023-06-10T04:21:43;100666.66;;;21.88;51.59
56504;BME280;48812;51.606;-0.114;2023-06-10T04:24:16;100679.25;;;21.87;51.78
56504;BME280;48812;51.606;-0.114;2023-06-10T04:26:49;100673.84;;;21.87;51.81
56504;BME280;48812;51.606;-0.114;2023-06-10T04:29:21;100672.91;;;21.88;51.59
56504;BME280;48812;51.606;-0.114;2023-06-10T04:31:55;100676.44;;;21.89;51.64
56504;BME280;48812;51.606;-0.114;2023-06-10T04:34:28;100672.81;;;21.90;51.63
56504;BME280;48812;51.606;-0.114;2023-06-10T04:37:01;100672.81;;;21.90;51.53
56504;BME280;48812;51.606;-0.114;2023-06-10T04:39:34;100671.06;;;21.89;51.50
56504;BME280;48812;51.606;-0.114;2023-06-10T04:42:11;100671.06;;;21.89;51.78
56504;BME280;48812;51.606;-0.114;2023-06-10T04:44:44;100677.44;;;21.88;51.85
56504;BME280;48812;51.606;-0.114;2023-06-10T04:47:17;100677.44;;;21.88;51.57
56504;BME280;48812;51.606;-0.114;2023-06-10T04:49:50;100672.16;;;21.86;51.87
56504;BME280;48812;51.606;-0.114;2023-06-10T04:52:23;100679.34;;;21.86;51.91
56504;BME280;48812;51.606;-0.114;2023-06-10T04:55:00;100665.88;;;21.86;51.63
56504;BME280;48812;51.606;-0.114;2023-06-10T04:57:32;100669.47;;;21.86;51.72
56504;BME280;48812;51.606;-0.114;2023-06-10T05:00:05;100659.66;;;21.85;51.77
56504;BME280;48812;51.606;-0.114;2023-06-10T05:02:42;100656.84;;;21.87;51.93
56504;BME280;48812;51.606;-0.114;2023-06-10T05:05:17;100664.94;;;21.87;51.89
56504;BME280;48812;51.606;-0.114;2023-06-10T05:07:50;100663.19;;;21.86;51.84
56504;BME280;48812;51.606;-0.114;2023-06-10T05:10:22;100660.50;;;21.86;51.62
56504;BME280;48812;51.606;-0.114;2023-06-10T05:12:55;100666.78;;;21.86;51.61
56504;BME280;48812;51.606;-0.114;2023-06-10T05:15:28;100665.88;;;21.86;51.66
56504;BME280;48812;51.606;-0.114;2023-06-10T05:18:01;100661.50;;;21.85;51.76
56504;BME280;48812;51.606;-0.114;2023-06-10T05:20:36;100664.19;;;21.85;51.82
56504;BME280;48812;51.606;-0.114;2023-06-10T05:23:09;100657.06;;;21.84;51.68
56504;BME280;48812;51.606;-0.114;2023-06-10T05:25:42;100655.22;;;21.84;51.83
56504;BME280;48812;51.606;-0.114;2023-06-10T05:28:14;100653.41;;;21.85;51.95
56504;BME280;48812;51.606;-0.114;2023-06-10T05:30:46;100659.66;;;21.85;51.80
56504;BME280;48812;51.606;-0.114;2023-06-10T05:33:19;100657.06;;;21.84;51.81
56504;BME280;48812;51.606;-0.114;2023-06-10T05:35:51;100657.06;;;21.84;51.89
56504;BME280;48812;51.606;-0.114;2023-06-10T05:38:24;100663.28;;;21.84;51.90
56504;BME280;48812;51.606;-0.114;2023-06-10T05:40:57;100667.63;;;21.87;51.69
56504;BME280;48812;51.606;-0.114;2023-06-10T05:43:31;100662.88;;;21.90;52.09
56504;BME280;48812;51.606;-0.114;2023-06-10T05:46:03;100665.47;;;21.92;52.01
56504;BME280;48812;51.606;-0.114;2023-06-10T05:48:36;100659.25;;;21.91;51.70
56504;BME280;48812;51.606;-0.114;2023-06-10T05:51:08;100661.06;;;21.91;51.65
56504;BME280;48812;51.606;-0.114;2023-06-10T05:53:40;100669.13;;;21.91;51.69
56504;BME280;48812;51.606;-0.114;2023-06-10T05:56:13;100662.88;;;21.90;51.95
56504;BME280;48812;51.606;-0.114;2023-06-10T05:58:46;100667.41;;;21.90;51.63
56504;BME280;48812;51.606;-0.114;2023-06-10T06:01:19;100664.81;;;21.88;51.97
56504;BME280;48812;51.606;-0.114;2023-06-10T06:03:51;100669.34;;;21.88;52.05
56504;BME280;48812;51.606;-0.114;2023-06-10T06:06:24;100679.13;;;21.89;51.82
56504;BME280;48812;51.606;-0.114;2023-06-10T06:08:56;100680.13;;;21.88;51.70
56504;BME280;48812;51.606;-0.114;2023-06-10T06:11:29;100675.59;;;21.88;51.68
56504;BME280;48812;51.606;-0.114;2023-06-10T06:14:03;100669.56;;;21.85;51.67
56504;BME280;48812;51.606;-0.114;2023-06-10T06:16:35;100680.03;;;21.89;52.01
56504;BME280;48812;51.606;-0.114;2023-06-10T06:19:08;100677.19;;;21.91;51.85
56504;BME280;48812;51.606;-0.114;2023-06-10T06:21:42;100677.97;;;21.93;51.98
56504;BME280;48812;51.606;-0.114;2023-06-10T06:24:17;100675.19;;;21.95;51.63
56504;BME280;48812;51.606;-0.114;2023-06-10T06:26:51;100665.28;;;21.95;51.83
56504;BME280;48812;51.606;-0.114;2023-06-10T06:29:23;100667.00;;;21.96;52.08
56504;BME280;48812;51.606;-0.114;2023-06-10T06:31:55;100671.41;;;21.97;51.81
56504;BME280;48812;51.606;-0.114;2023-06-10T06:37:54;100664.88;;;22.01;51.94
56504;BME280;48812;51.606;-0.114;2023-06-10T06:41:01;100673.69;;;22.03;52.04
56504;BME280;48812;51.606;-0.114;2023-06-10T06:44:07;100672.75;;;22.04;51.81
56504;BME280;48812;51.606;-0.114;2023-06-10T06:47:13;100672.50;;;22.07;52.00
56504;BME280;48812;51.606;-0.114;2023-06-10T06:49:51;100679.53;;;22.10;51.94
56504;BME280;48812;51.606;-0.114;2023-06-10T06:52:42;100674.81;;;22.14;52.00
56504;BME280;48812;51.606;-0.114;2023-06-10T06:55:15;100675.56;;;22.16;51.74
56504;BME280;48812;51.606;-0.114;2023-06-10T07:01:01;100672.66;;;22.19;51.79
56504;BME280;48812;51.606;-0.114;2023-06-10T07:03:37;100676.16;;;22.21;51.99
56504;BME280;48812;51.606;-0.114;2023-06-10T07:06:11;100669.22;;;22.17;51.66
56504;BME280;48812;51.606;-0.114;2023-06-10T07:08:44;100674.84;;;22.26;51.69
56504;BME280;48812;51.606;-0.114;2023-06-10T07:11:16;100672.16;;;22.26;51.94
56504;BME280;48812;51.606;-0.114;2023-06-10T07:13:49;100672.16;;;22.26;52.02
56504;BME280;48812;51.606;-0.114;2023-06-10T07:16:22;100676.59;;;22.27;52.17
56504;BME280;48812;51.606;-0.114;2023-06-10T07:18:54;100682.06;;;22.26;51.99
56504;BME280;48812;51.606;-0.114;2023-06-10T07:21:30;100681.09;;;22.27;51.80
56504;BME280;48812;51.606;-0.114;2023-06-10T07:24:04;100681.97;;;22.27;51.96
56504;BME280;48812;51.606;-0.114;2023-06-10T07:26:39;100689.16;;;22.27;52.16
56504;BME280;48812;51.606;-0.114;2023-06-10T07:29:12;100682.81;;;22.28;52.29
56504;BME280;48812;51.606;-0.114;2023-06-10T07:31:45;100680.03;;;22.30;52.27
56504;BME280;48812;51.606;-0.114;2023-06-10T07:34:17;100679.91;;;22.31;52.24
56504;BME280;48812;51.606;-0.114;2023-06-10T07:36:53;100669.03;;;22.33;51.94
56504;BME280;48812;51.606;-0.114;2023-06-10T07:39:25;100677.03;;;22.34;52.31
56504;BME280;48812;51.606;-0.114;2023-06-10T07:41:57;100678.63;;;22.37;52.21
56504;BME280;48812;51.606;-0.114;2023-06-10T07:44:30;100674.00;;;22.39;52.01
56504;BME280;48812;51.606;-0.114;2023-06-10T07:47:03;100677.47;;;22.41;52.35
56504;BME280;48812;51.606;-0.114;2023-06-10T07:49:35;100686.19;;;22.44;52.39
56504;BME280;48812;51.606;-0.114;2023-06-10T07:52:07;100684.22;;;22.46;52.37
56504;BME280;48812;51.606;-0.114;2023-06-10T07:54:40;100694.91;;;22.48;52.26
56504;BME280;48812;51.606;-0.114;2023-06-10T07:57:12;100701.94;;;22.51;52.12
56504;BME280;48812;51.606;-0.114;2023-06-10T07:59:44;100700.09;;;22.51;51.95
56504;BME280;48812;51.606;-0.114;2023-06-10T08:02:16;100699.78;;;22.56;51.87
56504;BME280;48812;51.606;-0.114;2023-06-10T08:04:49;100694.28;;;22.57;51.91
56504;BME280;48812;51.606;-0.114;2023-06-10T08:07:21;100694.91;;;22.61;51.97
56504;BME280;48812;51.606;-0.114;2023-06-10T08:09:54;100690.38;;;22.61;51.83
56504;BME280;48812;51.606;-0.114;2023-06-10T08:12:26;100690.16;;;22.64;51.86
56504;BME280;48812;51.606;-0.114;2023-06-10T08:14:59;100683.72;;;22.67;52.22
56504;BME280;48812;51.606;-0.114;2023-06-10T08:17:31;100690.81;;;22.68;52.18
56504;BME280;48812;51.606;-0.114;2023-06-10T08:20:04;100679.81;;;22.71;51.87
56504;BME280;48812;51.606;-0.114;2023-06-10T08:22:36;100688.66;;;22.73;51.76
56504;BME280;48812;51.606;-0.114;2023-06-10T08:25:08;100697.50;;;22.75;52.34
56504;BME280;48812;51.606;-0.114;2023-06-10T08:27:42;100690.19;;;22.77;52.00
56504;BME280;48812;51.606;-0.114;2023-06-10T08:30:14;100690.81;;;22.81;51.91
56504;BME280;48812;51.606;-0.114;2023-06-10T08:32:46;100693.41;;;22.82;51.91
56504;BME280;48812;51.606;-0.114;2023-06-10T08:35:19;100691.44;;;22.85;52.39
56504;BME280;48812;51.606;-0.114;2023-06-10T08:37:51;100697.63;;;22.87;52.32
56504;BME280;48812;51.606;-0.114;2023-06-10T08:40:23;100688.44;;;22.89;52.39
56504;BME280;48812;51.606;-0.114;2023-06-10T08:45:37;100698.91;;;22.94;52.05
56504;BME280;48812;51.606;-0.114;2023-06-10T08:48:09;100692.53;;;22.95;52.41
56504;BME280;48812;51.606;-0.114;2023-06-10T08:50:44;100695.97;;;22.97;52.09
56504;BME280;48812;51.606;-0.114;2023-06-10T08:53:18;100695.03;;;22.98;52.39
56504;BME280;48812;51.606;-0.114;2023-06-10T08:55:51;100690.41;;;23.00;52.38
56504;BME280;48812;51.606;-0.114;2023-06-10T08:58:23;100683.06;;;23.02;52.35
56504;BME280;48812;51.606;-0.114;2023-06-10T09:00:59;100693.75;;;23.04;51.98
56504;BME280;48812;51.606;-0.114;2023-06-10T09:03:31;100692.63;;;23.06;52.61
56504;BME280;48812;51.606;-0.114;2023-06-10T09:06:04;100691.69;;;23.07;52.44
56504;BME280;48812;51.606;-0.114;2023-06-10T09:08:36;100695.13;;;23.09;52.57
56504;BME280;48812;51.606;-0.114;2023-06-10T09:11:10;100696.84;;;23.10;52.49
56504;BME280;48812;51.606;-0.114;2023-06-10T09:13:42;100694.91;;;23.12;52.47
56504;BME280;48812;51.606;-0.114;2023-06-10T09:16:14;100691.25;;;23.13;52.41
56504;BME280;48812;51.606;-0.114;2023-06-10T09:18:48;100697.38;;;23.15;52.63
56504;BME280;48812;51.606;-0.114;2023-06-10T09:21:22;100690.16;;;23.16;52.52
56504;BME280;48812;51.606;-0.114;2023-06-10T09:23:54;100688.22;;;23.18;52.40
56504;BME280;48812;51.606;-0.114;2023-06-10T09:26:30;100685.41;;;23.19;52.65
56504;BME280;48812;51.606;-0.114;2023-06-10T09:29:05;100684.31;;;23.22;52.50
56504;BME280;48812;51.606;-0.114;2023-06-10T09:31:38;100682.34;;;23.24;52.74
56504;BME280;48812;51.606;-0.114;2023-06-10T09:34:11;100684.84;;;23.27;52.79
56504;BME280;48812;51.606;-0.114;2023-06-10T09:36:44;100681.06;;;23.30;52.62
56504;BME280;48812;51.606;-0.114;2023-06-10T09:39:17;100678.25;;;23.31;52.34
56504;BME280;48812;51.606;-0.114;2023-06-10T09:41:50;100686.97;;;23.35;52.50
56504;BME280;48812;51.606;-0.114;2023-06-10T09:44:22;100688.72;;;23.36;52.62
56504;BME280;48812;51.606;-0.114;2023-06-10T09:46:56;100685.75;;;23.39;52.49
56504;BME280;48812;51.606;-0.114;2023-06-10T09:49:33;100685.53;;;23.42;52.34
56504;BME280;48812;51.606;-0.114;2023-06-10T09:52:09;100682.72;;;23.44;52.28
56504;BME280;48812;51.606;-0.114;2023-06-10T09:54:41;100690.72;;;23.45;52.53
56504;BME280;48812;51.606;-0.114;2023-06-10T09:57:17;100688.75;;;23.47;52.25
56504;BME280;48812;51.606;-0.114;2023-06-10T09:59:55;100685.94;;;23.49;52.59
56504;BME280;48812;51.606;-0.114;2023-06-10T10:02:35;100685.72;;;23.52;52.22
56504;BME280;48812;51.606;-0.114;2023-06-10T10:05:24;100694.44;;;23.55;52.21
56504;BME280;48812;51.606;-0.114;2023-06-10T10:08:34;100687.97;;;23.58;52.61
56504;BME280;48812;51.606;-0.114;2023-06-10T10:11:06;100695.00;;;23.61;52.52
56504;BME280;48812;51.606;-0.114;2023-06-10T10:13:39;100691.31;;;23.62;52.48
56504;BME280;48812;51.606;-0.114;2023-06-10T10:16:14;100687.66;;;23.63;52.28
56504;BME280;48812;51.606;-0.114;2023-06-10T10:18:54;100694.75;;;23.64;52.49
56504;BME280;48812;51.606;-0.114;2023-06-10T10:21:28;100683.84;;;23.65;52.31
56504;BME280;48812;51.606;-0.114;2023-06-10T10:24:09;100680.16;;;23.66;52.34
56504;BME280;48812;51.606;-0.114;2023-06-10T10:26:46;100680.06;;;23.68;52.33
56504;BME280;48812;51.606;-0.114;2023-06-10T10:29:28;100687.19;;;23.69;52.23
56504;BME280;48812;51.606;-0.114;2023-06-10T10:32:01;100679.84;;;23.71;52.30
56504;BME280;48812;51.606;-0.114;2023-06-10T10:37:12;100672.47;;;23.73;52.24
56504;BME280;48812;51.606;-0.114;2023-06-10T10:39:44;100672.47;;;23.73;52.45
56504;BME280;48812;51.606;-0.114;2023-06-10T10:42:16;100682.31;;;23.74;52.14
56504;BME280;48812;51.606;-0.114;2023-06-10T10:44:49;100666.00;;;23.76;52.06
56504;BME280;48812;51.606;-0.114;2023-06-10T10:47:22;100672.13;;;23.78;52.17
56504;BME280;48812;51.606;-0.114;2023-06-10T10:49:54;100668.34;;;23.80;52.24
56504;BME280;48812;51.606;-0.114;2023-06-10T10:52:27;100666.44;;;23.82;51.94
56504;BME280;48812;51.606;-0.114;2023-06-10T10:55:00;100666.31;;;23.84;51.89
56504;BME280;48812;51.606;-0.114;2023-06-10T10:57:34;100662.50;;;23.86;51.80
56504;BME280;48812;51.606;-0.114;2023-06-10T11:00:11;100668.63;;;23.88;51.97
56504;BME280;48812;51.606;-0.114;2023-06-10T11:02:45;100668.53;;;23.90;51.98
56504;BME280;48812;51.606;-0.114;2023-06-10T11:05:18;100673.94;;;23.90;51.72
56504;BME280;48812;51.606;-0.114;2023-06-10T11:08:02;100671.09;;;23.91;51.80
56504;BME280;48812;51.606;-0.114;2023-06-10T11:10:35;100666.59;;;23.92;51.90
56504;BME280;48812;51.606;-0.114;2023-06-10T11:13:09;100672.84;;;23.92;51.96
56504;BME280;48812;51.606;-0.114;2023-06-10T11:15:45;100663.78;;;23.94;51.88
56504;BME280;48812;51.606;-0.114;2023-06-10T11:31:32;100655.28;;;23.98;51.93
56504;BME280;48812;51.606;-0.114;2023-06-10T11:34:05;100657.88;;;24.00;51.74
56504;BME280;48812;51.606;-0.114;2023-06-10T11:36:39;100666.75;;;24.02;51.86
56504;BME280;48812;51.606;-0.114;2023-06-10T11:39:12;100664.78;;;24.04;51.64
56504;BME280;48812;51.606;-0.114;2023-06-10T11:41:45;100650.28;;;24.05;51.90
56504;BME280;48812;51.606;-0.114;2023-06-10T11:44:18;100649.31;;;24.06;51.96
56504;BME280;48812;51.606;-0.114;2023-06-10T11:46:51;100659.16;;;24.07;51.86
56504;BME280;48812;51.606;-0.114;2023-06-10T11:49:23;100654.59;;;24.07;51.61
56504;BME280;48812;51.606;-0.114;2023-06-10T11:51:57;100657.19;;;24.09;51.75
56504;BME280;48812;51.606;-0.114;2023-06-10T11:54:29;100652.63;;;24.09;51.78
56504;BME280;48812;51.606;-0.114;2023-06-10T11:57:03;100649.81;;;24.11;51.77
56504;BME280;48812;51.606;-0.114;2023-06-10T11:59:35;100654.25;;;24.12;51.73
56504;BME280;48812;51.606;-0.114;2023-06-10T12:02:14;100647.84;;;24.13;51.48
56504;BME280;48812;51.606;-0.114;2023-06-10T12:04:46;100645.03;;;24.15;51.71
56504;BME280;48812;51.606;-0.114;2023-06-10T12:07:18;100647.63;;;24.16;51.70
56504;BME280;48812;51.606;-0.114;2023-06-10T12:10:00;100643.09;;;24.17;51.66
56504;BME280;48812;51.606;-0.114;2023-06-10T12:12:43;100645.69;;;24.18;51.43
56504;BME280;48812;51.606;-0.114;2023-06-10T12:15:23;100641.13;;;24.19;51.30
56504;BME280;48812;51.606;-0.114;2023-06-10T12:17:55;100642.88;;;24.20;51.57
56504;BME280;48812;51.606;-0.114;2023-06-10T12:20:31;100655.25;;;24.22;51.38
56504;BME280;48812;51.606;-0.114;2023-06-10T12:23:09;100644.44;;;24.22;51.37
56504;BME280;48812;51.606;-0.114;2023-06-10T12:25:51;100648.88;;;24.23;51.31
56504;BME280;48812;51.606;-0.114;2023-06-10T12:28:24;100636.97;;;24.26;51.39
56504;BME280;48812;51.606;-0.114;2023-06-10T12:31:07;100643.25;;;24.26;51.10
56504;BME280;48812;51.606;-0.114;2023-06-10T12:33:39;100640.44;;;24.28;51.24
56504;BME280;48812;51.606;-0.114;2023-06-10T12:36:15;100650.13;;;24.31;51.13
56504;BME280;48812;51.606;-0.114;2023-06-10T12:38:48;100647.31;;;24.32;51.16
56504;BME280;48812;51.606;-0.114;2023-06-10T12:41:24;100647.19;;;24.34;51.09
56504;BME280;48812;51.606;-0.114;2023-06-10T12:43:57;100640.81;;;24.35;51.12
56504;BME280;48812;51.606;-0.114;2023-06-10T12:46:35;100640.53;;;24.38;51.21
56504;BME280;48812;51.606;-0.114;2023-06-10T12:49:07;100642.28;;;24.39;51.21
56504;BME280;48812;51.606;-0.114;2023-06-10T12:51:39;100634.03;;;24.40;50.99
56504;BME280;48812;51.606;-0.114;2023-06-10T12:54:12;100636.63;;;24.42;50.90
56504;BME280;48812;51.606;-0.114;2023-06-10T12:56:44;100628.41;;;24.43;51.12
56504;BME280;48812;51.606;-0.114;2023-06-10T12:59:16;100629.25;;;24.44;50.69
56504;BME280;48812;51.606;-0.114;2023-06-10T13:01:50;100627.28;;;24.46;50.93
56504;BME280;48812;51.606;-0.114;2023-06-10T13:04:23;100633.44;;;24.48;50.92
56504;BME280;48812;51.606;-0.114;2023-06-10T13:06:55;100626.06;;;24.50;50.76
56504;BME280;48812;51.606;-0.114;2023-06-10T13:09:27;100621.41;;;24.52;50.71
56504;BME280;48812;51.606;-0.114;2023-06-10T13:11:59;100623.13;;;24.53;50.88
56504;BME280;48812;51.606;-0.114;2023-06-10T13:14:32;100621.16;;;24.55;50.52
56504;BME280;48812;51.606;-0.114;2023-06-10T13:17:04;100630.03;;;24.57;50.63
56504;BME280;48812;51.606;-0.114;2023-06-10T13:19:38;100619.97;;;24.59;50.80
56504;BME280;48812;51.606;-0.114;2023-06-10T13:22:11;100618.00;;;24.61;50.71
56504;BME280;48812;51.606;-0.114;2023-06-10T13:24:43;100620.47;;;24.64;50.55
56504;BME280;48812;51.606;-0.114;2023-06-10T13:27:15;100622.16;;;24.65;50.42
56504;BME280;48812;51.606;-0.114;2023-06-10T13:29:47;100612.84;;;24.70;50.70
56504;BME280;48812;51.606;-0.114;2023-06-10T13:32:20;100619.00;;;24.72;50.40
56504;BME280;48812;51.606;-0.114;2023-06-10T13:34:52;100608.91;;;24.74;50.40
56504;BME280;48812;51.606;-0.114;2023-06-10T13:37:28;100614.06;;;24.77;50.41
56504;BME280;48812;51.606;-0.114;2023-06-10T13:40:01;100615.56;;;24.81;50.29
56504;BME280;48812;51.606;-0.114;2023-06-10T13:42:35;100610.75;;;24.84;50.31